Salisbury Heights, Pennsylvania
Current Conditions -  °F | °C
As of 4:35 AM on Friday 24 Oct 2014 (Local Time) from KMQS Reporting Station
Overcast Overcast  
Wind Chill: 55°   Ceiling: 2800
Heat Index: 55°   Visibility: 10mi
Dew Point: 46°   Wind: 18mph
Humidity: 72%   Direction: 330°NNW
Pressure: 29.86"   Gusts: 28mph
Location:  40.0073°N, 75.9953°W
Report Text: KMQS 240835Z AUTO 33016G24KT 10SM OVC028 13/08 A2986 RMK AO2
Loading
Personal Weather Stations






























Interactive Weather Map
Tropical Storm Tracking
New forecast layout! Learn more

10-Day Weather Forecast

Advertisements
Track Severe Weather on mobile